Newark, MD (21841)

3:09 PM EDT on September 21, 2014 (GMT -0400)
Gracie's Salty Eye | Change Station
CLOSE
Current Station
Personal Weather Station
Location: Snow Hill, MD
Elevation: 3 ft
Nearby Weather Stations

Elev 3 ft 38.12 °N, 75.30 °W | Updated 1 second ago

Overcast
Overcast
77.0 °F
Feels Like 78 °F
N
1.6
Wind Variable Wind from South
Gusts 8.3 mph

Today
High -- | Low -- °F
--% Chance of Precip.
Yesterday
High -- | Low -- °F
Precip. -- in
6:47 AM 6:59 PM
Waning Crescent, 6% visible
Pressure 29.69 in
Visibility 10.0 miles
Clouds Few 1600 ft
Scattered Clouds 2100 ft
Scattered Clouds 2700 ft
Heat Index 78 °F
Dew Point 74 °F
Humidity 90%
Rainfall 0.01 in
Snow Depth Not available.
UV 5 out of 12
Pollen 3.80 out of 12
Air Quality Not available.
Flu Activity Not available.
METAR KOXB 211853Z AUTO 03009G16KT 10SM FEW016 SCT021 SCT027 25/21 A2969 RMK AO2 SLP054 T02500206 TSNO

More Conditions Fewer Conditions

Pressure 29.69 in
Visibility 10.0 miles
Clouds Few 1600 ft
Scattered Clouds 2100 ft
Scattered Clouds 2700 ft
Heat Index 78 °F
Dew Point 74 °F
Humidity 90%
Rainfall 0.01 in
Snow Depth Not available.
UV 5 out of 12
Pollen 3.80 out of 12
Air Quality Not available.
Flu Activity Not available.
METAR KOXB 211853Z AUTO 03009G16KT 10SM FEW016 SCT021 SCT027 25/21 A2969 RMK AO2 SLP054 T02500206 TSNO

More Conditions Fewer Conditions

10-Day Weather Forecast

Almanac

Astronomy

Sep. 21, 2014 Rise Set
Actual Time 6:47 AM EDT 6:59 PM EDT
Civil Twilight 6:21 AM EDT 7:26 PM EDT
Nautical Twilight 5:50 AM EDT 7:56 PM EDT
Astronomical Twilight 5:19 AM EDT 8:28 PM EDT
Moon 4:21 AM EDT 5:33 PM EDT
Length of Visible Light 13h 04m
Length of Day
12h 11m
Tomorrow will be 2m 28s shorter.
Waning Crescent, 6% of the Moon is Illuminated
Today
Waning Crescent
Sep 24
New
Oct 1
First Quarter
Oct 8
Full
Oct 15
Last Quarter

Today's Extremes

State Highs State Lows

Community

WunderPhotos

Upload Photos

1,755,226 photos uploaded!

Nearby

Snow Depth

Station Depth Elevation
No new snow has been reported.

Earthquake Activity

City Distance Mag. Time & Date
No recent earthquake activity has been reported nearby.
Minimum magnitude displayed is 2.5.

Coastal Water Temperatures

Place Temperature
Ocean City Inlet, MD 72.0 °F
Wachapreague, VA 73.9 °F
Lewes, DE 72.0 °F
Cape May, NJ 75.9 °F
Bishops Head, MD 73.0 °F

Nearby Weather Stations